Fruitvale, TN (38336)

15:16 CST le 24 novembre 2014 (GMT -0600)
Crossroads Community | Change Station
CLOSE
Current Station
Stations météorologiques personnelles
Location: Bells, TN
Altitude: 367 ft
Stations météo à proximité

Alt. 367 ft 35.74 °N, 89.12 °W | Updated 9 minutes ago

Ciel dégagé
Ciel dégagé
53.1 ° F
Paraît 53.1 ° F
N
7.3
Vent Variable Vent de Ouest

Aujourd'hui
Haut(e) -- | Bas -- ° F
--% Risque de précip.
Hier
Haut(e) -- | Bas -- ° F
Precip. -- pouce
6:41 AM 4:44 PM
Lune montante, 7% visible
Pression 29.88 pouce
Visibilité 10.0 Miles terrestres
Nuages Ciel dégagé
Point de rosée 36 ° F
Humidité 51%
Précipitations 0.00 pouce
Profondeur de la couche neigeuse Non disponible.
UV 1 sur 12
Pollen 1.80 sur 12
Qualité de l'air Non disponible.
Flu Activity Non disponible.
METAR KMKL 242053Z 26016G20KT 10SM CLR 12/M01 A2988 RMK AO2 SLP117 T01221006 53012

More Conditions Fewer Conditions

Pression 29.88 pouce
Visibilité 10.0 Miles terrestres
Nuages Ciel dégagé
Point de rosée 36 ° F
Humidité 51%
Précipitations 0.00 pouce
Profondeur de la couche neigeuse Non disponible.
UV 1 sur 12
Pollen 1.80 sur 12
Qualité de l'air Non disponible.
Flu Activity Non disponible.
METAR KMKL 242053Z 26016G20KT 10SM CLR 12/M01 A2988 RMK AO2 SLP117 T01221006 53012

More Conditions Fewer Conditions

10-Day Weather Forecast

Almanac

Astronomie

Nov. 24, 2014 Lever Coucher
Temps réel
Crépuscule civil
Crépuscule nautique
Crépuscule astronomique
Lune
Durée de lumière visible
Longueur du jour
Tomorrow will be .
, % of the Moon is Illuminated

Extrêmes aujourd'hui

State Highs State Lows

Community

WunderPhotos

Upload Photos

1,773,410 Photos téléchargées !

WunderBlogs® & News

Nearby

Qualité de l'air

  Qualité de l'air Indice de la qualité de l'air Polluant
Not available.

Épaisseur de neige

Station Depth Altitude

Activité sismique

Ville Distance Mag. Time & Date
Minimum magnitude displayed is 2.5.

Températures des eaux côtières

Lieu Température

Stations météo à proximité